Current Conditions

Updated: 22-Feb-2019 05:22 AM  
Summary / Temperature Wind Rain






Feels like: 33°F

1-hour difference
2.7°F 2.7°F colder than last hour.

24-hour difference
7.1°F7.1°F colder than yesterday at this time.

  Today Yesterday
High: 39.5°F
12:00 AM
53.2°F
2:49 PM
Low: 33.3°F
5:21 AM
39.5°F
4:08 AM
Calm E
0.0
Gust:  0.0 mph
0 Beaufort - Calm

Today: 6.9 - 9:21 AM
Month: 18.4 mph - Feb 15
Rain Today: 0.00 in
Current Rate (/hr): 0.000 in
Max Rate (/hr):
Rain Yesterday: 0.03 in
Storm Rain: 0.02 in
This Month: 3.19 in
Season Total: 7.47 in
Last Rain Event: Today
Humidity / Barometer Sun / Moon
Humidity: 90 Decreased 2.0% in the last hour.
Dew Point: 30.7°F Decreased 3.2°F in the last hour.
Barometer: 30.011 inHg  
Baro Trend: Rising slowly
Sunrise: 6:36 AM
Sunset: 5:43 PM
Moonrise: 8:29 PM
Moonset: 8:48 AM
Sky Conditions UV Index
Summary: Clear
Visibility: 10 miles
Clouds: None
KVIS - 4:56 AM PST
Current: 0.0  None 
Friday: 4.4  Moderate 
Saturday: 4.5  Moderate 
Air Quality Fire Danger
 Good 
Ozone 20 ppb
PM 2.5 6 μg/m3
5:20 AM PST
Current: 0  Low 

Local Alerts Local Forecast
Local NWS Alerts
Today

Sunny

High 55
Tonight

Mostly
Clear
Low 35
Sat

Mostly
Sunny
High 59
Sat night

Partly
Cloudy
Low 39
Sun

Partly
Cloudy
High 62
Sun night

Partly
Cloudy
Low 53
Mon

Rain
Showers
High 63

Local Radar Local Satellite Neighborhood Cam Sky Cam
Local Radar Local Satellite Neighborhood Cam Sky Cam


Nearby Airport Stations

KVIS - Visalia, California, USA
Distance from station: W 14mi, 23km
Updated: Fri, 22-Feb-2019 4:56am PST
Clear
Clear
 Wind from calm
Wind: Calm
Temperature: 34°F , 1°C
Dew Point: 32°F , 0°C
Humidity: 93%
Barometer: 29.99 inHg , 1015.6 hPa
Clouds: Clear
Visibility: 10 miles , 16 km
2019/02/22 12:56 KVIS 221256Z AUTO 00000KT 10SM CLR 01/00 A2999 RMK AO2 SLP164 T00110000 FZRANO
KPTV - Porterville, California, USA
Distance from station: SSE 19mi, 31km
Updated: Fri, 22-Feb-2019 4:56am PST
Few Clouds
Few Clouds
 Wind from ESE
Wind: ESE 6 mph , 9 km/h
Temperature: 30°F , -1°C
Wind Chill: 24°F , -4°C
Dew Point: 30°F , -1°C
Humidity: 100%
Barometer: 29.98 inHg , 1015.2 hPa
Clouds: Few Clouds
Visibility: 10 miles , 16 km
Cloud details: Few Clouds 3400 ft
2019/02/22 12:56 KPTV 221256Z AUTO 12005KT 10SM FEW034 M01/M01 A2998 RMK AO2 SLP168 T10061011 FZRANO

Metar display script from Saratoga-Weather.org



Visitor Map